createdAt,value
2018-06-27T05:23:54.989Z,15.32
2018-06-27T05:26:27.441Z,20.82
2018-06-27T05:28:59.881Z,14.00
2018-06-27T05:31:32.304Z,12.43
2018-06-27T05:34:05.153Z,16.27
2018-06-27T05:36:37.577Z,15.08
2018-06-27T05:39:10.046Z,11.08
2018-06-27T05:41:42.470Z,14.68
2018-06-27T05:44:14.905Z,14.20
2018-06-27T05:46:47.554Z,14.47
2018-06-27T05:49:20.308Z,13.65
2018-06-27T05:51:52.736Z,16.00
2018-06-27T05:54:25.244Z,17.42
2018-06-27T05:56:57.690Z,14.83
2018-06-27T05:59:30.113Z,12.70
2018-06-27T06:02:02.532Z,15.35
2018-06-27T06:04:34.966Z,14.18
2018-06-27T06:07:07.386Z,17.90
2018-06-27T06:09:39.817Z,12.82
2018-06-27T06:12:12.498Z,13.88
2018-06-27T06:14:44.949Z,14.43
2018-06-27T06:17:17.185Z,14.55
2018-06-27T06:19:49.677Z,14.95
2018-06-27T06:22:22.396Z,16.90
2018-06-27T06:24:54.825Z,18.57
2018-06-27T06:27:27.235Z,16.35
2018-06-27T06:29:59.661Z,16.23
2018-06-27T06:32:32.425Z,14.58
2018-06-27T06:35:04.833Z,12.25
2018-06-27T06:37:37.242Z,13.83
2018-06-27T06:40:09.917Z,15.35
2018-06-27T06:42:43.473Z,12.40
2018-06-27T06:45:16.405Z,10.98
2018-06-27T06:47:49.081Z,15.43
2018-06-27T06:50:22.067Z,14.35
2018-06-27T06:52:54.481Z,11.53
2018-06-27T06:55:26.954Z,12.60
2018-06-27T06:57:59.405Z,13.13
2018-06-27T07:00:31.841Z,11.33
2018-06-27T07:03:04.310Z,11.60
2018-06-27T07:05:37.218Z,11.55
2018-06-27T07:08:09.629Z,9.50
2018-06-27T07:10:42.071Z,15.55
2018-06-27T07:13:14.472Z,9.08
2018-06-27T07:15:46.910Z,8.85
2018-06-27T07:18:19.637Z,9.30
2018-06-27T07:20:52.075Z,9.20
2018-06-27T07:23:24.486Z,8.90
2018-06-27T07:25:56.913Z,10.68
2018-06-27T07:28:29.362Z,11.00
2018-06-27T07:31:01.810Z,14.07
2018-06-27T07:33:34.036Z,13.53
2018-06-27T07:36:06.844Z,10.05
2018-06-27T07:38:39.893Z,12.53
2018-06-27T07:41:12.326Z,7.78
2018-06-27T07:43:44.738Z,8.10
2018-06-27T07:46:17.167Z,10.25
2018-06-27T07:48:49.401Z,10.63
2018-06-27T07:51:21.824Z,8.53
2018-06-27T07:53:54.529Z,12.28
2018-06-27T07:56:27.214Z,20.88
2018-06-27T07:58:59.893Z,12.80
2018-06-27T08:01:32.294Z,10.55
2018-06-27T08:04:05.046Z,10.38
2018-06-27T08:06:37.274Z,8.70
2018-06-27T08:09:09.653Z,7.72
2018-06-27T08:11:42.341Z,9.35
2018-06-27T08:14:15.037Z,6.40
2018-06-27T08:16:47.718Z,5.70
2018-06-27T08:19:20.100Z,7.65
2018-06-27T08:21:53.073Z,4.97
2018-06-27T08:24:25.470Z,7.70
2018-06-27T08:26:57.901Z,6.92
2018-06-27T08:29:30.307Z,8.53
2018-06-27T08:32:02.711Z,8.70
2018-06-27T08:34:35.414Z,7.33
2018-06-27T08:37:08.079Z,8.50
2018-06-27T08:39:40.744Z,13.35
2018-06-27T08:42:13.150Z,12.60
2018-06-27T08:44:46.159Z,7.20
2018-06-27T08:47:18.565Z,13.15
2018-06-27T08:49:50.948Z,12.98
2018-06-27T08:52:23.381Z,14.45
2018-06-27T08:54:55.770Z,18.10
2018-06-27T08:57:28.218Z,17.10
2018-06-27T09:00:00.673Z,27.35
2018-06-27T09:02:33.097Z,39.40
2018-06-27T09:05:05.837Z,25.27
2018-06-27T09:07:38.290Z,21.20
2018-06-27T09:10:11.002Z,24.70
2018-06-27T09:12:43.681Z,20.57
2018-06-27T09:15:16.110Z,20.15
2018-06-27T09:17:48.833Z,8.05
2018-06-27T09:20:21.513Z,19.23
2018-06-27T09:22:54.263Z,17.45
2018-06-27T09:25:26.678Z,16.07
2018-06-27T09:27:59.345Z,10.93
2018-06-27T09:30:31.757Z,9.55
2018-06-27T09:33:04.162Z,12.30
2018-06-27T09:35:36.578Z,7.75
2018-06-27T09:38:09.244Z,25.57
2018-06-27T09:40:41.661Z,13.68
2018-06-27T09:43:14.070Z,13.50
2018-06-27T09:45:46.770Z,13.68
2018-06-27T09:48:19.450Z,11.90
2018-06-27T09:50:51.865Z,9.30
2018-06-27T09:53:24.287Z,17.17
2018-06-27T09:55:56.689Z,9.45
2018-06-27T09:58:29.077Z,10.35
2018-06-27T10:01:01.474Z,7.17
2018-06-27T10:03:34.125Z,13.28
2018-06-27T10:06:06.809Z,9.10
2018-06-27T10:08:39.205Z,13.88
2018-06-27T10:11:11.590Z,5.10
2018-06-27T10:13:44.230Z,15.60
2018-06-27T10:16:16.917Z,7.40
2018-06-27T10:18:49.317Z,10.72
2018-06-27T10:21:21.710Z,29.52
2018-06-27T10:23:54.141Z,9.98
2018-06-27T10:26:26.834Z,4.30
2018-06-27T10:28:59.228Z,9.35
2018-06-27T10:31:31.885Z,6.83
2018-06-27T10:34:04.280Z,9.53
2018-06-27T10:36:36.677Z,10.40
2018-06-27T10:39:09.082Z,19.32
2018-06-27T10:41:41.482Z,5.50
2018-06-27T10:44:14.148Z,6.10
2018-06-27T10:46:46.813Z,14.85
2018-06-27T10:49:19.229Z,5.45
2018-06-27T10:51:51.704Z,8.30
2018-06-27T10:54:23.918Z,7.35
2018-06-27T10:56:56.411Z,10.23
2018-06-27T10:59:29.073Z,4.78
2018-06-27T11:02:01.784Z,10.30
2018-06-27T11:04:34.192Z,7.58
2018-06-27T11:07:06.665Z,8.28
2018-06-27T11:09:39.072Z,12.18
2018-06-27T11:12:11.490Z,12.58
2018-06-27T11:14:44.010Z,28.40
2018-06-27T11:17:16.855Z,6.80
2018-06-27T11:19:49.535Z,20.37
2018-06-27T11:22:22.185Z,9.43
2018-06-27T11:24:54.853Z,6.17
2018-06-27T11:27:27.279Z,5.45
2018-06-27T11:29:59.675Z,4.45
2018-06-27T11:32:32.605Z,9.73
2018-06-27T11:35:05.264Z,10.35
2018-06-27T11:37:37.688Z,5.42
2018-06-27T11:40:10.845Z,20.02
2018-06-27T11:42:43.274Z,10.85
2018-06-27T11:45:15.744Z,7.17
2018-06-27T11:47:48.486Z,9.78
2018-06-27T11:50:20.934Z,8.45
2018-06-27T11:52:53.370Z,6.47
2018-06-27T11:55:25.785Z,6.37
2018-06-27T11:57:58.232Z,19.65
2018-06-27T12:00:30.641Z,7.80
2018-06-27T12:03:03.052Z,9.90
2018-06-27T12:05:35.785Z,21.30
2018-06-27T12:08:08.221Z,10.23
2018-06-27T12:10:40.625Z,7.53
2018-06-27T12:13:13.041Z,4.65
2018-06-27T12:15:45.449Z,8.18
2018-06-27T12:18:17.874Z,3.25
2018-06-27T12:20:50.292Z,4.10
2018-06-27T12:23:22.714Z,3.17
2018-06-27T12:25:55.148Z,4.20
2018-06-27T12:28:27.569Z,4.22
2018-06-27T12:31:00.078Z,3.65
2018-06-27T12:33:32.510Z,6.30
2018-06-27T12:36:05.637Z,10.28
2018-06-27T12:38:38.069Z,4.80
2018-06-27T12:41:10.550Z,3.42
2018-06-27T12:43:42.966Z,3.10
2018-06-27T12:46:15.700Z,6.33
2018-06-27T12:48:48.336Z,5.97
2018-06-27T12:51:20.733Z,3.20
2018-06-27T12:53:53.419Z,2.80
2018-06-27T12:56:26.518Z,2.58
2018-06-27T12:58:58.947Z,5.17
2018-06-27T13:01:31.350Z,6.17
2018-06-27T13:04:03.822Z,4.30
2018-06-27T13:06:36.308Z,6.70
2018-06-27T13:09:09.256Z,7.30
2018-06-27T13:11:41.876Z,3.92
2018-06-27T13:14:14.680Z,12.60
2018-06-27T13:16:47.086Z,9.15
2018-06-27T13:19:19.757Z,12.58
2018-06-27T13:21:52.446Z,5.90
2018-06-27T13:24:25.162Z,3.08
2018-06-27T13:26:57.590Z,3.75
2018-06-27T13:29:30.322Z,8.70
2018-06-27T13:32:02.770Z,4.15
2018-06-27T13:34:35.546Z,3.67
2018-06-27T13:37:07.966Z,3.85
2018-06-27T13:39:40.418Z,8.73
2018-06-27T13:42:12.847Z,5.05
2018-06-27T13:44:45.541Z,3.58
2018-06-27T13:47:17.958Z,3.60
2018-06-27T13:49:50.449Z,5.17
2018-06-27T13:52:22.864Z,4.92
2018-06-27T13:54:55.277Z,6.87
2018-06-27T13:57:28.097Z,3.80
2018-06-27T14:00:01.133Z,3.27
2018-06-27T14:02:33.778Z,7.55
2018-06-27T14:05:06.201Z,5.22
2018-06-27T14:07:38.618Z,3.08
2018-06-27T14:10:11.037Z,3.92
2018-06-27T14:12:43.599Z,8.45
2018-06-27T14:15:16.380Z,6.05
2018-06-27T14:17:48.782Z,3.77
2018-06-27T14:20:21.195Z,5.22
2018-06-27T14:22:53.602Z,5.50
2018-06-27T14:25:26.587Z,4.55
2018-06-27T14:27:58.989Z,4.60
2018-06-27T14:30:31.413Z,4.83
2018-06-27T14:33:03.842Z,4.62
2018-06-27T14:35:36.328Z,4.80
2018-06-27T14:38:08.832Z,3.60
2018-06-27T14:40:41.534Z,4.92
2018-06-27T14:43:13.942Z,5.00
2018-06-27T14:45:46.417Z,2.55
2018-06-27T14:48:18.826Z,6.20
2018-06-27T14:50:51.501Z,4.67
2018-06-27T14:53:23.901Z,4.90
2018-06-27T14:55:56.413Z,7.30
2018-06-27T14:58:29.048Z,4.42
2018-06-27T15:01:01.622Z,4.20
2018-06-27T15:03:34.143Z,3.62
2018-06-27T15:06:07.175Z,5.87
2018-06-27T15:08:39.622Z,11.00
2018-06-27T15:11:12.026Z,3.42
2018-06-27T15:13:44.457Z,5.42
2018-06-27T15:16:16.870Z,2.62
2018-06-27T15:18:49.329Z,3.67
2018-06-27T15:21:21.742Z,2.52
2018-06-27T15:23:54.277Z,4.28
2018-06-27T15:26:26.689Z,4.40
2018-06-27T15:28:59.109Z,3.25
2018-06-27T15:31:31.533Z,2.95
2018-06-27T15:34:04.306Z,5.42
2018-06-27T15:36:36.762Z,3.35
2018-06-27T15:39:09.141Z,5.90
2018-06-27T15:41:41.785Z,4.78
2018-06-27T15:44:14.509Z,3.42
2018-06-27T15:46:46.905Z,3.85
2018-06-27T15:49:19.326Z,5.17
2018-06-27T15:51:51.909Z,3.30
2018-06-27T15:54:24.474Z,2.20
2018-06-27T15:56:56.926Z,2.72
2018-06-27T15:59:29.356Z,3.95
2018-06-27T16:02:01.770Z,3.80
2018-06-27T16:04:34.211Z,3.33
2018-06-27T16:07:06.941Z,2.65
2018-06-27T16:09:39.659Z,5.03
2018-06-27T16:12:12.062Z,2.75
2018-06-27T16:14:44.481Z,3.47
2018-06-27T16:17:17.221Z,2.90
2018-06-27T16:19:49.354Z,2.65
2018-06-27T16:22:21.784Z,5.25
2018-06-27T16:24:54.218Z,3.27
2018-06-27T16:27:27.076Z,3.22
2018-06-27T16:29:59.534Z,5.83
2018-06-27T16:32:31.934Z,4.42
2018-06-27T16:35:04.472Z,3.10
2018-06-27T16:37:36.882Z,2.75
2018-06-27T16:40:09.297Z,4.40
2018-06-27T16:42:41.733Z,2.72
2018-06-27T16:45:14.399Z,4.72
2018-06-27T16:47:47.154Z,5.00
2018-06-27T16:50:19.569Z,6.53
2018-06-27T16:52:51.998Z,5.30
2018-06-27T16:55:24.421Z,6.35
2018-06-27T16:57:57.093Z,3.02
2018-06-27T17:00:29.555Z,4.00
2018-06-27T17:03:01.936Z,6.95
2018-06-27T17:05:34.329Z,3.25
2018-06-27T17:08:06.710Z,4.30
2018-06-27T17:10:39.113Z,6.60
2018-06-27T17:13:11.533Z,6.03
2018-06-27T17:15:43.925Z,6.15
2018-06-27T17:18:16.317Z,4.28
2018-06-27T17:20:48.709Z,5.72
2018-06-27T17:23:21.349Z,7.87
2018-06-27T17:25:54.053Z,4.67
2018-06-27T17:28:26.456Z,4.22
2018-06-27T17:30:58.841Z,4.42
2018-06-27T17:33:31.221Z,3.42
2018-06-27T17:36:03.635Z,3.95
2018-06-27T17:38:36.063Z,3.17
2018-06-27T17:41:08.954Z,2.75
2018-06-27T17:43:41.338Z,6.17
2018-06-27T17:46:13.762Z,6.47
2018-06-27T17:48:46.004Z,2.35
2018-06-27T17:51:18.402Z,2.65
2018-06-27T17:53:50.811Z,4.80
2018-06-27T17:56:23.265Z,3.83
2018-06-27T17:58:55.636Z,2.55
2018-06-27T18:01:28.054Z,3.62
2018-06-27T18:04:00.753Z,4.47
2018-06-27T18:06:33.438Z,5.03
2018-06-27T18:09:07.637Z,8.78
2018-06-27T18:11:40.047Z,2.65
2018-06-27T18:14:12.426Z,4.65
2018-06-27T18:16:44.892Z,4.42
2018-06-27T18:19:17.437Z,3.47
2018-06-27T18:21:49.833Z,5.50
2018-06-27T18:24:22.230Z,4.78
2018-06-27T18:26:54.635Z,3.10
2018-06-27T18:29:27.734Z,3.47
2018-06-27T18:32:00.142Z,3.70
2018-06-27T18:34:32.518Z,2.20
2018-06-27T18:37:04.907Z,8.30
2018-06-27T18:39:37.286Z,2.70
2018-06-27T18:42:09.926Z,7.30
2018-06-27T18:44:42.302Z,3.58
2018-06-27T18:47:14.710Z,1.93
2018-06-27T18:49:47.400Z,4.58
2018-06-27T18:52:20.073Z,3.42
2018-06-27T18:54:52.631Z,2.93
2018-06-27T18:57:25.042Z,2.50
2018-06-27T18:59:57.421Z,4.03
2018-06-27T19:02:30.123Z,1.87
2018-06-27T19:05:02.838Z,2.45
2018-06-27T19:07:35.226Z,4.03
2018-06-27T19:10:07.833Z,1.77
2018-06-27T19:12:40.553Z,4.00
2018-06-27T19:15:12.922Z,3.40
2018-06-27T19:17:45.309Z,2.37
2018-06-27T19:20:17.889Z,3.85
2018-06-27T19:22:50.325Z,3.33
2018-06-27T19:25:22.722Z,5.50
2018-06-27T19:27:55.433Z,2.77
2018-06-27T19:30:27.816Z,2.75
2018-06-27T19:33:00.506Z,2.52
2018-06-27T19:35:33.026Z,2.12
2018-06-27T19:38:05.668Z,2.70
2018-06-27T19:40:38.390Z,4.00
2018-06-27T19:43:11.369Z,2.50
2018-06-27T19:45:43.818Z,2.93
2018-06-27T19:48:16.141Z,2.02
2018-06-27T19:50:48.532Z,3.53
2018-06-27T19:53:20.936Z,3.37
2018-06-27T19:55:53.321Z,2.73
2018-06-27T19:58:25.860Z,3.00
2018-06-27T20:00:58.194Z,2.47
2018-06-27T20:03:30.595Z,3.50
2018-06-27T20:06:02.989Z,3.97
2018-06-27T20:08:35.685Z,2.57
2018-06-27T20:11:08.181Z,6.60
2018-06-27T20:13:40.575Z,2.67
2018-06-27T20:16:12.954Z,2.37
2018-06-27T20:18:46.005Z,4.73
2018-06-27T20:21:19.146Z,2.53
2018-06-27T20:23:51.569Z,2.33
2018-06-27T20:26:23.951Z,2.53
2018-06-27T20:28:56.617Z,4.13
2018-06-27T20:31:28.996Z,2.97
2018-06-27T20:34:01.408Z,3.30
2018-06-27T20:36:34.047Z,2.23
2018-06-27T20:39:07.784Z,2.10
2018-06-27T20:41:40.234Z,2.13
2018-06-27T20:44:12.621Z,3.00
2018-06-27T20:46:45.217Z,4.87
2018-06-27T20:49:17.905Z,2.00
2018-06-27T20:51:50.296Z,2.87
2018-06-27T20:54:22.802Z,1.87
